sensor_id;sensor_type;location;lat;lon;timestamp;P1;durP1;ratioP1;P2;durP2;ratioP2
39410;SDS011;26579;43.238;23.124;2023-06-24T00:00:01;16.08;;;9.13;;
39410;SDS011;26579;43.238;23.124;2023-06-24T00:02:33;16.85;;;10.15;;
39410;SDS011;26579;43.238;23.124;2023-06-24T00:04:59;13.15;;;9.20;;
39410;SDS011;26579;43.238;23.124;2023-06-24T00:07:25;15.13;;;8.70;;
39410;SDS011;26579;43.238;23.124;2023-06-24T00:09:51;14.80;;;9.40;;
39410;SDS011;26579;43.238;23.124;2023-06-24T00:12:16;12.50;;;9.02;;
39410;SDS011;26579;43.238;23.124;2023-06-24T00:14:42;16.50;;;9.93;;
39410;SDS011;26579;43.238;23.124;2023-06-24T00:17:08;14.38;;;9.50;;
39410;SDS011;26579;43.238;23.124;2023-06-24T00:19:34;13.57;;;8.85;;
39410;SDS011;26579;43.238;23.124;2023-06-24T00:21:59;20.02;;;9.80;;
39410;SDS011;26579;43.238;23.124;2023-06-24T00:24:25;15.52;;;10.00;;
39410;SDS011;26579;43.238;23.124;2023-06-24T00:26:54;13.70;;;9.10;;
39410;SDS011;26579;43.238;23.124;2023-06-24T00:29:20;14.98;;;8.75;;
39410;SDS011;26579;43.238;23.124;2023-06-24T00:31:46;16.17;;;9.75;;
39410;SDS011;26579;43.238;23.124;2023-06-24T00:34:12;16.13;;;8.70;;
39410;SDS011;26579;43.238;23.124;2023-06-24T00:36:38;17.77;;;9.82;;
39410;SDS011;26579;43.238;23.124;2023-06-24T00:39:04;15.48;;;9.15;;
39410;SDS011;26579;43.238;23.124;2023-06-24T00:41:31;16.13;;;10.43;;
39410;SDS011;26579;43.238;23.124;2023-06-24T00:43:57;14.80;;;9.20;;
39410;SDS011;26579;43.238;23.124;2023-06-24T00:46:24;14.02;;;7.85;;
39410;SDS011;26579;43.238;23.124;2023-06-24T00:48:56;12.32;;;9.23;;
39410;SDS011;26579;43.238;23.124;2023-06-24T00:51:24;14.82;;;9.02;;
39410;SDS011;26579;43.238;23.124;2023-06-24T00:53:51;14.05;;;9.52;;
39410;SDS011;26579;43.238;23.124;2023-06-24T00:56:21;14.32;;;9.40;;
39410;SDS011;26579;43.238;23.124;2023-06-24T00:58:47;17.77;;;9.57;;
39410;SDS011;26579;43.238;23.124;2023-06-24T01:01:14;15.52;;;9.07;;
39410;SDS011;26579;43.238;23.124;2023-06-24T01:03:41;13.60;;;9.45;;
39410;SDS011;26579;43.238;23.124;2023-06-24T01:06:08;12.88;;;8.88;;
39410;SDS011;26579;43.238;23.124;2023-06-24T01:08:35;14.27;;;9.20;;
39410;SDS011;26579;43.238;23.124;2023-06-24T01:11:01;14.43;;;8.80;;
39410;SDS011;26579;43.238;23.124;2023-06-24T01:13:27;16.52;;;9.05;;
39410;SDS011;26579;43.238;23.124;2023-06-24T01:15:53;16.50;;;9.32;;
39410;SDS011;26579;43.238;23.124;2023-06-24T01:18:33;12.73;;;8.75;;
39410;SDS011;26579;43.238;23.124;2023-06-24T01:26:19;13.52;;;9.30;;
39410;SDS011;26579;43.238;23.124;2023-06-24T01:31:50;16.38;;;9.75;;
39410;SDS011;26579;43.238;23.124;2023-06-24T01:34:25;12.25;;;7.90;;
39410;SDS011;26579;43.238;23.124;2023-06-24T01:39:33;16.17;;;9.80;;
39410;SDS011;26579;43.238;23.124;2023-06-24T01:42:06;12.93;;;9.55;;
39410;SDS011;26579;43.238;23.124;2023-06-24T01:44:35;17.63;;;10.07;;
39410;SDS011;26579;43.238;23.124;2023-06-24T01:47:04;14.63;;;9.75;;
39410;SDS011;26579;43.238;23.124;2023-06-24T01:49:32;14.25;;;9.27;;
39410;SDS011;26579;43.238;23.124;2023-06-24T01:52:01;15.88;;;8.88;;
39410;SDS011;26579;43.238;23.124;2023-06-24T01:54:30;14.32;;;9.05;;
39410;SDS011;26579;43.238;23.124;2023-06-24T01:56:57;15.15;;;9.38;;
39410;SDS011;26579;43.238;23.124;2023-06-24T01:59:25;19.20;;;9.65;;
39410;SDS011;26579;43.238;23.124;2023-06-24T02:01:53;15.40;;;8.82;;
39410;SDS011;26579;43.238;23.124;2023-06-24T02:04:20;12.20;;;8.85;;
39410;SDS011;26579;43.238;23.124;2023-06-24T02:06:47;13.30;;;8.88;;
39410;SDS011;26579;43.238;23.124;2023-06-24T02:09:15;13.90;;;9.23;;
39410;SDS011;26579;43.238;23.124;2023-06-24T02:11:43;17.10;;;9.25;;
39410;SDS011;26579;43.238;23.124;2023-06-24T02:14:09;19.55;;;9.30;;
39410;SDS011;26579;43.238;23.124;2023-06-24T02:16:36;15.85;;;9.05;;
39410;SDS011;26579;43.238;23.124;2023-06-24T02:19:04;11.60;;;8.88;;
39410;SDS011;26579;43.238;23.124;2023-06-24T02:21:32;14.98;;;9.07;;
39410;SDS011;26579;43.238;23.124;2023-06-24T02:24:00;15.02;;;9.57;;
39410;SDS011;26579;43.238;23.124;2023-06-24T02:26:26;15.95;;;8.88;;
39410;SDS011;26579;43.238;23.124;2023-06-24T02:28:53;16.05;;;9.30;;
39410;SDS011;26579;43.238;23.124;2023-06-24T02:31:19;14.90;;;9.13;;
39410;SDS011;26579;43.238;23.124;2023-06-24T02:33:45;17.92;;;10.05;;
39410;SDS011;26579;43.238;23.124;2023-06-24T02:36:11;13.68;;;9.27;;
39410;SDS011;26579;43.238;23.124;2023-06-24T02:38:37;17.08;;;10.02;;
39410;SDS011;26579;43.238;23.124;2023-06-24T02:41:03;15.32;;;9.38;;
39410;SDS011;26579;43.238;23.124;2023-06-24T02:43:29;15.38;;;9.98;;
39410;SDS011;26579;43.238;23.124;2023-06-24T02:45:54;16.67;;;10.15;;
39410;SDS011;26579;43.238;23.124;2023-06-24T02:48:20;28.08;;;10.00;;
39410;SDS011;26579;43.238;23.124;2023-06-24T02:50:46;16.33;;;9.93;;
39410;SDS011;26579;43.238;23.124;2023-06-24T02:53:14;15.05;;;9.15;;
39410;SDS011;26579;43.238;23.124;2023-06-24T02:55:40;14.95;;;10.60;;
39410;SDS011;26579;43.238;23.124;2023-06-24T02:58:06;18.75;;;10.15;;
39410;SDS011;26579;43.238;23.124;2023-06-24T03:00:55;15.07;;;10.50;;
39410;SDS011;26579;43.238;23.124;2023-06-24T03:03:44;17.25;;;10.20;;
39410;SDS011;26579;43.238;23.124;2023-06-24T03:06:12;15.68;;;10.15;;
39410;SDS011;26579;43.238;23.124;2023-06-24T03:08:39;14.68;;;9.25;;
39410;SDS011;26579;43.238;23.124;2023-06-24T03:11:06;12.55;;;9.23;;
39410;SDS011;26579;43.238;23.124;2023-06-24T03:13:33;15.35;;;9.45;;
39410;SDS011;26579;43.238;23.124;2023-06-24T03:16:14;12.23;;;9.18;;
39410;SDS011;26579;43.238;23.124;2023-06-24T03:19:03;12.07;;;9.15;;
39410;SDS011;26579;43.238;23.124;2023-06-24T03:21:30;12.38;;;9.10;;
39410;SDS011;26579;43.238;23.124;2023-06-24T03:24:04;13.80;;;9.40;;
39410;SDS011;26579;43.238;23.124;2023-06-24T03:26:31;17.30;;;9.65;;
39410;SDS011;26579;43.238;23.124;2023-06-24T03:28:57;14.88;;;8.35;;
39410;SDS011;26579;43.238;23.124;2023-06-24T03:31:23;17.40;;;8.82;;
39410;SDS011;26579;43.238;23.124;2023-06-24T03:33:50;15.13;;;9.93;;
39410;SDS011;26579;43.238;23.124;2023-06-24T03:36:15;16.88;;;8.70;;
39410;SDS011;26579;43.238;23.124;2023-06-24T03:38:41;17.10;;;8.93;;
39410;SDS011;26579;43.238;23.124;2023-06-24T03:41:07;15.30;;;8.63;;
39410;SDS011;26579;43.238;23.124;2023-06-24T03:43:33;13.45;;;8.57;;
39410;SDS011;26579;43.238;23.124;2023-06-24T03:45:59;17.45;;;8.88;;
39410;SDS011;26579;43.238;23.124;2023-06-24T03:48:24;16.60;;;10.13;;
39410;SDS011;26579;43.238;23.124;2023-06-24T03:50:50;22.65;;;12.73;;
39410;SDS011;26579;43.238;23.124;2023-06-24T03:53:16;20.00;;;12.55;;
39410;SDS011;26579;43.238;23.124;2023-06-24T03:55:42;24.42;;;12.63;;
39410;SDS011;26579;43.238;23.124;2023-06-24T03:58:07;21.45;;;12.85;;
39410;SDS011;26579;43.238;23.124;2023-06-24T04:00:33;18.23;;;12.40;;
39410;SDS011;26579;43.238;23.124;2023-06-24T04:02:59;18.80;;;10.93;;
39410;SDS011;26579;43.238;23.124;2023-06-24T04:05:25;16.35;;;10.73;;
39410;SDS011;26579;43.238;23.124;2023-06-24T04:07:50;17.33;;;11.05;;
39410;SDS011;26579;43.238;23.124;2023-06-24T04:10:16;16.05;;;10.43;;
39410;SDS011;26579;43.238;23.124;2023-06-24T04:12:43;15.50;;;9.85;;
39410;SDS011;26579;43.238;23.124;2023-06-24T04:15:10;18.58;;;10.00;;
39410;SDS011;26579;43.238;23.124;2023-06-24T04:17:36;17.25;;;10.55;;
39410;SDS011;26579;43.238;23.124;2023-06-24T04:20:02;17.73;;;9.90;;
39410;SDS011;26579;43.238;23.124;2023-06-24T04:22:29;16.15;;;10.35;;
39410;SDS011;26579;43.238;23.124;2023-06-24T04:24:57;16.75;;;9.77;;
39410;SDS011;26579;43.238;23.124;2023-06-24T04:27:23;17.48;;;10.35;;
39410;SDS011;26579;43.238;23.124;2023-06-24T04:29:49;14.07;;;9.00;;
39410;SDS011;26579;43.238;23.124;2023-06-24T04:32:15;16.65;;;9.50;;
39410;SDS011;26579;43.238;23.124;2023-06-24T04:34:40;23.77;;;10.18;;
39410;SDS011;26579;43.238;23.124;2023-06-24T04:37:06;17.02;;;10.73;;
39410;SDS011;26579;43.238;23.124;2023-06-24T04:39:32;17.95;;;10.35;;
39410;SDS011;26579;43.238;23.124;2023-06-24T04:41:57;17.67;;;11.73;;
39410;SDS011;26579;43.238;23.124;2023-06-24T04:44:23;16.67;;;10.82;;
39410;SDS011;26579;43.238;23.124;2023-06-24T04:46:49;22.00;;;11.45;;
39410;SDS011;26579;43.238;23.124;2023-06-24T04:49:14;26.35;;;10.93;;
39410;SDS011;26579;43.238;23.124;2023-06-24T04:51:40;22.88;;;10.98;;
39410;SDS011;26579;43.238;23.124;2023-06-24T04:54:06;20.45;;;10.90;;
39410;SDS011;26579;43.238;23.124;2023-06-24T04:56:32;19.25;;;9.80;;
39410;SDS011;26579;43.238;23.124;2023-06-24T04:58:57;16.88;;;9.68;;
39410;SDS011;26579;43.238;23.124;2023-06-24T05:01:23;20.05;;;10.55;;
39410;SDS011;26579;43.238;23.124;2023-06-24T05:03:49;18.38;;;10.05;;
39410;SDS011;26579;43.238;23.124;2023-06-24T05:06:14;15.23;;;10.82;;
39410;SDS011;26579;43.238;23.124;2023-06-24T05:08:40;14.07;;;10.00;;
39410;SDS011;26579;43.238;23.124;2023-06-24T05:11:05;15.13;;;10.85;;
39410;SDS011;26579;43.238;23.124;2023-06-24T05:13:31;40.63;;;11.50;;
39410;SDS011;26579;43.238;23.124;2023-06-24T05:15:57;19.63;;;11.38;;
39410;SDS011;26579;43.238;23.124;2023-06-24T05:18:22;18.55;;;10.95;;
39410;SDS011;26579;43.238;23.124;2023-06-24T05:20:48;16.02;;;10.73;;
39410;SDS011;26579;43.238;23.124;2023-06-24T05:23:14;26.60;;;11.25;;
39410;SDS011;26579;43.238;23.124;2023-06-24T05:25:39;18.27;;;10.48;;
39410;SDS011;26579;43.238;23.124;2023-06-24T05:28:05;16.45;;;10.65;;
39410;SDS011;26579;43.238;23.124;2023-06-24T05:30:31;18.17;;;10.93;;
39410;SDS011;26579;43.238;23.124;2023-06-24T05:32:56;30.65;;;12.55;;
39410;SDS011;26579;43.238;23.124;2023-06-24T05:35:22;25.20;;;13.07;;
39410;SDS011;26579;43.238;23.124;2023-06-24T05:37:48;23.58;;;11.63;;
39410;SDS011;26579;43.238;23.124;2023-06-24T05:40:13;18.00;;;11.50;;
39410;SDS011;26579;43.238;23.124;2023-06-24T05:42:39;18.25;;;11.15;;
39410;SDS011;26579;43.238;23.124;2023-06-24T05:45:05;20.83;;;12.07;;
39410;SDS011;26579;43.238;23.124;2023-06-24T05:47:31;24.00;;;11.73;;
39410;SDS011;26579;43.238;23.124;2023-06-24T05:49:58;16.52;;;11.30;;
39410;SDS011;26579;43.238;23.124;2023-06-24T05:52:23;17.33;;;10.52;;
39410;SDS011;26579;43.238;23.124;2023-06-24T05:54:49;21.52;;;11.40;;
39410;SDS011;26579;43.238;23.124;2023-06-24T05:57:15;16.27;;;10.93;;
39410;SDS011;26579;43.238;23.124;2023-06-24T05:59:41;16.73;;;11.10;;
39410;SDS011;26579;43.238;23.124;2023-06-24T06:02:07;18.38;;;11.18;;
39410;SDS011;26579;43.238;23.124;2023-06-24T06:04:32;13.88;;;10.85;;
39410;SDS011;26579;43.238;23.124;2023-06-24T06:06:58;16.17;;;10.38;;
39410;SDS011;26579;43.238;23.124;2023-06-24T06:09:24;14.93;;;9.88;;
39410;SDS011;26579;43.238;23.124;2023-06-24T06:11:49;17.48;;;10.68;;
39410;SDS011;26579;43.238;23.124;2023-06-24T06:14:15;18.88;;;10.63;;
39410;SDS011;26579;43.238;23.124;2023-06-24T06:16:41;12.88;;;10.05;;
39410;SDS011;26579;43.238;23.124;2023-06-24T06:19:06;17.65;;;10.63;;
39410;SDS011;26579;43.238;23.124;2023-06-24T06:21:32;17.17;;;10.88;;
39410;SDS011;26579;43.238;23.124;2023-06-24T06:23:58;14.27;;;9.45;;
39410;SDS011;26579;43.238;23.124;2023-06-24T06:26:23;22.92;;;11.38;;
39410;SDS011;26579;43.238;23.124;2023-06-24T06:28:49;13.00;;;10.38;;
39410;SDS011;26579;43.238;23.124;2023-06-24T06:31:15;16.05;;;9.38;;
39410;SDS011;26579;43.238;23.124;2023-06-24T06:33:41;14.32;;;9.95;;
39410;SDS011;26579;43.238;23.124;2023-06-24T06:36:08;15.50;;;10.52;;
39410;SDS011;26579;43.238;23.124;2023-06-24T06:38:34;12.38;;;10.63;;
39410;SDS011;26579;43.238;23.124;2023-06-24T06:41:00;13.40;;;10.40;;
39410;SDS011;26579;43.238;23.124;2023-06-24T06:43:25;19.08;;;10.90;;
39410;SDS011;26579;43.238;23.124;2023-06-24T06:45:51;23.15;;;11.50;;
39410;SDS011;26579;43.238;23.124;2023-06-24T06:48:17;15.32;;;10.77;;
39410;SDS011;26579;43.238;23.124;2023-06-24T06:50:43;19.05;;;10.70;;
39410;SDS011;26579;43.238;23.124;2023-06-24T06:53:10;13.20;;;10.48;;
39410;SDS011;26579;43.238;23.124;2023-06-24T06:55:36;14.80;;;11.30;;
39410;SDS011;26579;43.238;23.124;2023-06-24T06:58:02;13.57;;;10.65;;
39410;SDS011;26579;43.238;23.124;2023-06-24T07:00:28;15.60;;;11.05;;
39410;SDS011;26579;43.238;23.124;2023-06-24T07:02:53;24.05;;;11.40;;
39410;SDS011;26579;43.238;23.124;2023-06-24T07:05:19;15.38;;;10.48;;
39410;SDS011;26579;43.238;23.124;2023-06-24T07:07:44;15.45;;;10.95;;
39410;SDS011;26579;43.238;23.124;2023-06-24T07:10:10;14.63;;;10.50;;
39410;SDS011;26579;43.238;23.124;2023-06-24T07:12:36;15.00;;;10.93;;
39410;SDS011;26579;43.238;23.124;2023-06-24T07:15:02;11.55;;;9.88;;
39410;SDS011;26579;43.238;23.124;2023-06-24T07:17:28;14.32;;;9.88;;
39410;SDS011;26579;43.238;23.124;2023-06-24T07:19:53;13.73;;;10.55;;
39410;SDS011;26579;43.238;23.124;2023-06-24T07:22:19;13.38;;;10.52;;
39410;SDS011;26579;43.238;23.124;2023-06-24T07:24:45;21.05;;;11.40;;
39410;SDS011;26579;43.238;23.124;2023-06-24T07:27:10;13.15;;;10.25;;
39410;SDS011;26579;43.238;23.124;2023-06-24T07:29:36;18.67;;;10.80;;
39410;SDS011;26579;43.238;23.124;2023-06-24T07:32:02;31.42;;;12.23;;
39410;SDS011;26579;43.238;23.124;2023-06-24T07:34:28;16.10;;;11.93;;
39410;SDS011;26579;43.238;23.124;2023-06-24T07:36:55;17.38;;;10.98;;
39410;SDS011;26579;43.238;23.124;2023-06-24T07:39:20;16.52;;;10.57;;
39410;SDS011;26579;43.238;23.124;2023-06-24T07:41:46;19.30;;;12.50;;
39410;SDS011;26579;43.238;23.124;2023-06-24T07:44:11;18.55;;;11.93;;
39410;SDS011;26579;43.238;23.124;2023-06-24T07:46:37;19.17;;;11.93;;
39410;SDS011;26579;43.238;23.124;2023-06-24T07:49:03;17.45;;;11.30;;
39410;SDS011;26579;43.238;23.124;2023-06-24T07:51:28;19.83;;;10.48;;
39410;SDS011;26579;43.238;23.124;2023-06-24T07:53:54;14.60;;;9.93;;
39410;SDS011;26579;43.238;23.124;2023-06-24T07:56:20;20.02;;;11.55;;
39410;SDS011;26579;43.238;23.124;2023-06-24T07:58:46;13.73;;;11.55;;
39410;SDS011;26579;43.238;23.124;2023-06-24T08:01:11;16.70;;;12.27;;
39410;SDS011;26579;43.238;23.124;2023-06-24T08:03:37;19.02;;;11.25;;
39410;SDS011;26579;43.238;23.124;2023-06-24T08:06:03;11.55;;;10.10;;
39410;SDS011;26579;43.238;23.124;2023-06-24T08:08:29;14.73;;;11.07;;
39410;SDS011;26579;43.238;23.124;2023-06-24T08:10:55;15.77;;;10.98;;
39410;SDS011;26579;43.238;23.124;2023-06-24T08:13:20;19.85;;;10.55;;
39410;SDS011;26579;43.238;23.124;2023-06-24T08:15:46;16.08;;;10.48;;
39410;SDS011;26579;43.238;23.124;2023-06-24T08:18:12;17.55;;;11.07;;
39410;SDS011;26579;43.238;23.124;2023-06-24T08:20:37;14.50;;;10.13;;
39410;SDS011;26579;43.238;23.124;2023-06-24T08:23:03;15.13;;;10.65;;
39410;SDS011;26579;43.238;23.124;2023-06-24T08:25:29;14.88;;;10.57;;
39410;SDS011;26579;43.238;23.124;2023-06-24T08:27:55;14.40;;;11.07;;
39410;SDS011;26579;43.238;23.124;2023-06-24T08:30:20;15.07;;;10.60;;
39410;SDS011;26579;43.238;23.124;2023-06-24T08:32:46;15.43;;;9.68;;
39410;SDS011;26579;43.238;23.124;2023-06-24T08:35:12;16.85;;;11.15;;
39410;SDS011;26579;43.238;23.124;2023-06-24T08:37:37;17.13;;;10.50;;
39410;SDS011;26579;43.238;23.124;2023-06-24T08:40:03;15.85;;;11.57;;
39410;SDS011;26579;43.238;23.124;2023-06-24T08:42:30;16.23;;;10.30;;
39410;SDS011;26579;43.238;23.124;2023-06-24T08:44:56;14.82;;;11.15;;
39410;SDS011;26579;43.238;23.124;2023-06-24T08:47:23;15.70;;;11.32;;
39410;SDS011;26579;43.238;23.124;2023-06-24T08:49:52;14.07;;;10.88;;
39410;SDS011;26579;43.238;23.124;2023-06-24T08:52:20;16.70;;;11.68;;
39410;SDS011;26579;43.238;23.124;2023-06-24T08:54:50;15.10;;;10.75;;
39410;SDS011;26579;43.238;23.124;2023-06-24T08:57:17;16.85;;;11.13;;
39410;SDS011;26579;43.238;23.124;2023-06-24T08:59:42;14.57;;;10.60;;
39410;SDS011;26579;43.238;23.124;2023-06-24T09:02:08;19.10;;;11.90;;
39410;SDS011;26579;43.238;23.124;2023-06-24T09:04:34;19.63;;;11.93;;
39410;SDS011;26579;43.238;23.124;2023-06-24T09:07:00;14.82;;;10.13;;
39410;SDS011;26579;43.238;23.124;2023-06-24T09:09:25;17.48;;;11.43;;
39410;SDS011;26579;43.238;23.124;2023-06-24T09:11:52;15.85;;;10.63;;
39410;SDS011;26579;43.238;23.124;2023-06-24T09:14:21;14.20;;;11.20;;
39410;SDS011;26579;43.238;23.124;2023-06-24T09:16:54;16.55;;;11.32;;
39410;SDS011;26579;43.238;23.124;2023-06-24T09:19:23;16.83;;;11.45;;
39410;SDS011;26579;43.238;23.124;2023-06-24T09:21:50;13.82;;;10.98;;
39410;SDS011;26579;43.238;23.124;2023-06-24T09:24:16;16.13;;;11.43;;
39410;SDS011;26579;43.238;23.124;2023-06-24T09:26:42;17.05;;;10.45;;
39410;SDS011;26579;43.238;23.124;2023-06-24T09:29:08;14.00;;;10.00;;
39410;SDS011;26579;43.238;23.124;2023-06-24T09:31:34;15.93;;;10.25;;
39410;SDS011;26579;43.238;23.124;2023-06-24T09:34:00;18.38;;;10.68;;
39410;SDS011;26579;43.238;23.124;2023-06-24T09:36:26;14.05;;;9.95;;
39410;SDS011;26579;43.238;23.124;2023-06-24T09:38:52;14.95;;;10.82;;
39410;SDS011;26579;43.238;23.124;2023-06-24T09:41:18;15.10;;;10.68;;
39410;SDS011;26579;43.238;23.124;2023-06-24T09:43:43;14.07;;;11.90;;
39410;SDS011;26579;43.238;23.124;2023-06-24T09:46:09;17.58;;;11.48;;
39410;SDS011;26579;43.238;23.124;2023-06-24T09:48:34;14.45;;;11.60;;
39410;SDS011;26579;43.238;23.124;2023-06-24T09:51:01;14.80;;;12.02;;
39410;SDS011;26579;43.238;23.124;2023-06-24T09:53:32;13.15;;;11.45;;
39410;SDS011;26579;43.238;23.124;2023-06-24T09:56:00;17.20;;;12.48;;
39410;SDS011;26579;43.238;23.124;2023-06-24T09:58:26;16.73;;;11.68;;
39410;SDS011;26579;43.238;23.124;2023-06-24T10:00:57;17.00;;;11.38;;
39410;SDS011;26579;43.238;23.124;2023-06-24T10:03:27;18.00;;;12.57;;
39410;SDS011;26579;43.238;23.124;2023-06-24T10:05:55;15.32;;;11.98;;
39410;SDS011;26579;43.238;23.124;2023-06-24T10:08:20;16.23;;;13.23;;
39410;SDS011;26579;43.238;23.124;2023-06-24T10:10:46;20.33;;;15.80;;
39410;SDS011;26579;43.238;23.124;2023-06-24T10:13:12;15.40;;;12.32;;
39410;SDS011;26579;43.238;23.124;2023-06-24T10:15:38;18.77;;;14.23;;
39410;SDS011;26579;43.238;23.124;2023-06-24T10:18:26;18.30;;;12.80;;
39410;SDS011;26579;43.238;23.124;2023-06-24T10:23:29;18.85;;;12.85;;
39410;SDS011;26579;43.238;23.124;2023-06-24T10:26:29;17.65;;;13.65;;
39410;SDS011;26579;43.238;23.124;2023-06-24T10:34:47;16.55;;;12.07;;
39410;SDS011;26579;43.238;23.124;2023-06-24T10:37:02;30.83;;;14.43;;
39410;SDS011;26579;43.238;23.124;2023-06-24T10:47:39;26.52;;;15.52;;
39410;SDS011;26579;43.238;23.124;2023-06-24T10:50:09;22.60;;;15.20;;
39410;SDS011;26579;43.238;23.124;2023-06-24T10:52:37;29.67;;;17.00;;
39410;SDS011;26579;43.238;23.124;2023-06-24T10:55:04;22.67;;;15.30;;
39410;SDS011;26579;43.238;23.124;2023-06-24T10:57:30;21.55;;;15.40;;
39410;SDS011;26579;43.238;23.124;2023-06-24T10:59:57;29.42;;;17.00;;
39410;SDS011;26579;43.238;23.124;2023-06-24T11:02:23;17.58;;;14.57;;
39410;SDS011;26579;43.238;23.124;2023-06-24T11:04:53;40.42;;;14.65;;
39410;SDS011;26579;43.238;23.124;2023-06-24T11:07:24;17.35;;;13.25;;
39410;SDS011;26579;43.238;23.124;2023-06-24T11:09:52;18.65;;;14.32;;
39410;SDS011;26579;43.238;23.124;2023-06-24T11:12:25;30.95;;;14.77;;
39410;SDS011;26579;43.238;23.124;2023-06-24T11:14:56;24.63;;;15.52;;
39410;SDS011;26579;43.238;23.124;2023-06-24T11:17:23;17.63;;;14.38;;
39410;SDS011;26579;43.238;23.124;2023-06-24T11:19:49;18.70;;;13.55;;
39410;SDS011;26579;43.238;23.124;2023-06-24T11:22:15;20.85;;;14.77;;
39410;SDS011;26579;43.238;23.124;2023-06-24T11:24:41;18.15;;;14.57;;
39410;SDS011;26579;43.238;23.124;2023-06-24T11:27:07;28.15;;;14.68;;
39410;SDS011;26579;43.238;23.124;2023-06-24T11:29:33;25.85;;;14.52;;
39410;SDS011;26579;43.238;23.124;2023-06-24T11:31:59;24.88;;;16.13;;
39410;SDS011;26579;43.238;23.124;2023-06-24T11:34:25;53.33;;;17.92;;
39410;SDS011;26579;43.238;23.124;2023-06-24T11:36:51;28.77;;;15.43;;
39410;SDS011;26579;43.238;23.124;2023-06-24T11:39:23;29.00;;;15.85;;
39410;SDS011;26579;43.238;23.124;2023-06-24T11:41:50;24.57;;;15.27;;
39410;SDS011;26579;43.238;23.124;2023-06-24T11:44:18;22.33;;;15.13;;
39410;SDS011;26579;43.238;23.124;2023-06-24T11:46:44;19.90;;;14.90;;
39410;SDS011;26579;43.238;23.124;2023-06-24T11:49:10;18.50;;;14.45;;
39410;SDS011;26579;43.238;23.124;2023-06-24T11:51:36;17.88;;;14.13;;
39410;SDS011;26579;43.238;23.124;2023-06-24T11:54:02;17.60;;;14.02;;
39410;SDS011;26579;43.238;23.124;2023-06-24T11:56:35;26.42;;;15.82;;
39410;SDS011;26579;43.238;23.124;2023-06-24T11:59:03;22.43;;;15.47;;
39410;SDS011;26579;43.238;23.124;2023-06-24T12:01:30;25.35;;;15.57;;
39410;SDS011;26579;43.238;23.124;2023-06-24T12:03:57;21.88;;;15.35;;
39410;SDS011;26579;43.238;23.124;2023-06-24T12:06:25;23.27;;;15.45;;
39410;SDS011;26579;43.238;23.124;2023-06-24T12:08:51;19.60;;;15.93;;
39410;SDS011;26579;43.238;23.124;2023-06-24T12:11:16;26.33;;;15.25;;
39410;SDS011;26579;43.238;23.124;2023-06-24T12:13:42;22.35;;;16.20;;
39410;SDS011;26579;43.238;23.124;2023-06-24T12:16:08;19.60;;;16.02;;
39410;SDS011;26579;43.238;23.124;2023-06-24T12:18:33;19.05;;;15.68;;
39410;SDS011;26579;43.238;23.124;2023-06-24T12:20:59;18.77;;;14.52;;
39410;SDS011;26579;43.238;23.124;2023-06-24T12:23:24;21.60;;;15.15;;
39410;SDS011;26579;43.238;23.124;2023-06-24T12:25:50;19.85;;;15.50;;
39410;SDS011;26579;43.238;23.124;2023-06-24T12:28:16;17.38;;;14.85;;
39410;SDS011;26579;43.238;23.124;2023-06-24T12:30:41;19.95;;;15.82;;
39410;SDS011;26579;43.238;23.124;2023-06-24T12:33:07;20.00;;;15.70;;
39410;SDS011;26579;43.238;23.124;2023-06-24T12:35:33;21.63;;;15.65;;
39410;SDS011;26579;43.238;23.124;2023-06-24T12:37:58;18.85;;;15.73;;
39410;SDS011;26579;43.238;23.124;2023-06-24T12:40:24;19.42;;;15.35;;
39410;SDS011;26579;43.238;23.124;2023-06-24T12:42:50;25.80;;;15.07;;
39410;SDS011;26579;43.238;23.124;2023-06-24T12:45:15;22.80;;;14.88;;
39410;SDS011;26579;43.238;23.124;2023-06-24T12:47:41;22.98;;;15.48;;
39410;SDS011;26579;43.238;23.124;2023-06-24T12:50:07;20.33;;;15.23;;
39410;SDS011;26579;43.238;23.124;2023-06-24T12:52:33;19.25;;;15.45;;
39410;SDS011;26579;43.238;23.124;2023-06-24T12:54:59;19.90;;;15.38;;
39410;SDS011;26579;43.238;23.124;2023-06-24T12:57:25;26.88;;;16.60;;
39410;SDS011;26579;43.238;23.124;2023-06-24T12:59:51;18.45;;;15.32;;
39410;SDS011;26579;43.238;23.124;2023-06-24T13:02:16;21.08;;;15.68;;
39410;SDS011;26579;43.238;23.124;2023-06-24T13:04:42;20.27;;;14.95;;
39410;SDS011;26579;43.238;23.124;2023-06-24T13:07:08;18.88;;;15.55;;
39410;SDS011;26579;43.238;23.124;2023-06-24T13:09:33;20.33;;;15.70;;
39410;SDS011;26579;43.238;23.124;2023-06-24T13:11:59;22.92;;;15.23;;
39410;SDS011;26579;43.238;23.124;2023-06-24T13:14:25;24.98;;;16.50;;
39410;SDS011;26579;43.238;23.124;2023-06-24T13:16:50;22.02;;;15.57;;
39410;SDS011;26579;43.238;23.124;2023-06-24T13:19:16;20.35;;;15.93;;
39410;SDS011;26579;43.238;23.124;2023-06-24T13:21:42;21.15;;;15.75;;
39410;SDS011;26579;43.238;23.124;2023-06-24T13:24:07;26.52;;;16.88;;
39410;SDS011;26579;43.238;23.124;2023-06-24T13:26:33;24.45;;;17.15;;
39410;SDS011;26579;43.238;23.124;2023-06-24T13:28:59;25.52;;;16.92;;
39410;SDS011;26579;43.238;23.124;2023-06-24T13:31:24;21.65;;;16.77;;
39410;SDS011;26579;43.238;23.124;2023-06-24T13:33:50;23.67;;;17.95;;
39410;SDS011;26579;43.238;23.124;2023-06-24T13:36:29;23.77;;;18.00;;
39410;SDS011;26579;43.238;23.124;2023-06-24T13:38:55;22.63;;;15.73;;
39410;SDS011;26579;43.238;23.124;2023-06-24T13:41:21;20.23;;;15.75;;
39410;SDS011;26579;43.238;23.124;2023-06-24T13:43:46;24.20;;;14.90;;
39410;SDS011;26579;43.238;23.124;2023-06-24T13:46:12;21.27;;;15.23;;
39410;SDS011;26579;43.238;23.124;2023-06-24T13:48:38;21.58;;;15.48;;
39410;SDS011;26579;43.238;23.124;2023-06-24T13:51:03;21.05;;;16.10;;
39410;SDS011;26579;43.238;23.124;2023-06-24T13:53:29;27.65;;;16.67;;
39410;SDS011;26579;43.238;23.124;2023-06-24T13:55:55;23.15;;;14.57;;
39410;SDS011;26579;43.238;23.124;2023-06-24T13:58:20;22.73;;;15.48;;
39410;SDS011;26579;43.238;23.124;2023-06-24T14:00:46;18.92;;;15.35;;
39410;SDS011;26579;43.238;23.124;2023-06-24T14:03:12;22.38;;;15.02;;
39410;SDS011;26579;43.238;23.124;2023-06-24T14:05:37;21.58;;;15.50;;
39410;SDS011;26579;43.238;23.124;2023-06-24T14:08:03;23.75;;;16.60;;
39410;SDS011;26579;43.238;23.124;2023-06-24T14:10:29;19.23;;;14.93;;
39410;SDS011;26579;43.238;23.124;2023-06-24T14:12:54;20.88;;;16.33;;
39410;SDS011;26579;43.238;23.124;2023-06-24T14:15:20;20.90;;;16.25;;
39410;SDS011;26579;43.238;23.124;2023-06-24T14:17:46;20.88;;;15.80;;
39410;SDS011;26579;43.238;23.124;2023-06-24T14:20:12;22.77;;;15.80;;
39410;SDS011;26579;43.238;23.124;2023-06-24T14:22:37;25.75;;;17.83;;
39410;SDS011;26579;43.238;23.124;2023-06-24T14:25:03;21.30;;;16.23;;
39410;SDS011;26579;43.238;23.124;2023-06-24T14:27:29;20.42;;;15.68;;
39410;SDS011;26579;43.238;23.124;2023-06-24T14:29:55;22.50;;;15.82;;
39410;SDS011;26579;43.238;23.124;2023-06-24T14:32:21;22.42;;;15.98;;
39410;SDS011;26579;43.238;23.124;2023-06-24T14:34:46;23.05;;;16.00;;